N900SB KOAK-KSAN
Flight info
| Callsign | N900SB |
|---|---|
| Flight time | N/A |
| Altitude | 29000 |
| Route | KOAK COAST9 SXC HUBRD1 KSAN |
| Aircraft | TBM9/L-SDFGRWY/S |
Departure
| Time | 2026-05-05 04:17 |
|---|---|
| Airport | San Francisco Bay Oakland International Airport (KOAK) |
Arrival
| Time | N/A |
|---|---|
| Airport | San Diego International Airport (KSAN) |
| Time | Latitude | Longitude | Altitude | Speed | Heading |
|---|---|---|---|---|---|
| 2026-05-05 03:47 | 37.72707 | -122.20663 | 12 ft | 0 kts | 88° |
| 2026-05-05 04:08 | 37.72706 | -122.20657 | 12 ft | 1 kts | 106° |
| 2026-05-05 04:08 | 37.72704 | -122.20652 | 12 ft | 0 kts | 141° |
| 2026-05-05 04:08 | 37.72667 | -122.20622 | 11 ft | 12 kts | 147° |
| 2026-05-05 04:09 | 37.72613 | -122.20548 | 11 ft | 12 kts | 108° |
| 2026-05-05 04:09 | 37.72592 | -122.20482 | 11 ft | 5 kts | 119° |
| 2026-05-05 04:09 | 37.72575 | -122.20457 | 11 ft | 10 kts | 149° |
| 2026-05-05 04:09 | 37.72557 | -122.20453 | 11 ft | 0 kts | 191° |
| 2026-05-05 04:15 | 37.72555 | -122.20454 | 11 ft | 2 kts | 195° |
| 2026-05-05 04:15 | 37.72510 | -122.20481 | 10 ft | 13 kts | 219° |
| 2026-05-05 04:16 | 37.72535 | -122.20636 | 10 ft | 36 kts | 292° |
| 2026-05-05 04:16 | 37.72701 | -122.21118 | 37 ft | 81 kts | 293° |
| 2026-05-05 04:16 | 37.72983 | -122.21882 | 194 ft | 109 kts | 297° |
| 2026-05-05 04:16 | 37.73389 | -122.22787 | 442 ft | 128 kts | 303° |
| 2026-05-05 04:17 | 37.73976 | -122.23721 | 750 ft | 143 kts | 311° |
| 2026-05-05 04:17 | 37.74720 | -122.24644 | 1084 ft | 151 kts | 313° |
| 2026-05-05 04:17 | 37.75408 | -122.25498 | 1804 ft | 133 kts | 315° |
| 2026-05-05 04:17 | 37.76107 | -122.26382 | 2012 ft | 150 kts | 305° |
| 2026-05-05 04:18 | 37.76612 | -122.27373 | 2849 ft | 117 kts | 298° |
| 2026-05-05 04:18 | 37.77043 | -122.28333 | 2966 ft | 145 kts | 298° |
| 2026-05-05 04:18 | 37.77632 | -122.29508 | 3115 ft | 161 kts | 303° |
| 2026-05-05 04:18 | 37.78233 | -122.30625 | 3690 ft | 148 kts | 289° |
| 2026-05-05 04:19 | 37.78437 | -122.31924 | 3938 ft | 159 kts | 271° |
| 2026-05-05 04:19 | 37.78367 | -122.33359 | 4284 ft | 161 kts | 262° |
| 2026-05-05 04:19 | 37.78321 | -122.34718 | 4836 ft | 152 kts | 269° |
| 2026-05-05 04:19 | 37.78486 | -122.36044 | 5242 ft | 157 kts | 283° |
| 2026-05-05 04:20 | 37.78994 | -122.37340 | 5431 ft | 175 kts | 305° |
| 2026-05-05 04:20 | 37.79972 | -122.38364 | 5563 ft | 192 kts | 333° |
| 2026-05-05 04:20 | 37.81259 | -122.38880 | 5896 ft | 190 kts | 343° |
| 2026-05-05 04:20 | 37.82467 | -122.39255 | 6680 ft | 164 kts | 352° |
| 2026-05-05 04:21 | 37.83556 | -122.39282 | 7143 ft | 161 kts | 10° |
| 2026-05-05 04:21 | 37.84662 | -122.38767 | 7185 ft | 182 kts | 34° |
| 2026-05-05 04:21 | 37.85563 | -122.37558 | 7204 ft | 196 kts | 63° |
| 2026-05-05 04:21 | 37.85834 | -122.35893 | 7416 ft | 197 kts | 97° |
| 2026-05-05 04:22 | 37.85220 | -122.34340 | 7286 ft | 211 kts | 136° |
| 2026-05-05 04:22 | 37.83795 | -122.33607 | 6506 ft | 242 kts | 177° |
| 2026-05-05 04:22 | 37.82125 | -122.33816 | 6513 ft | 225 kts | 187° |
| 2026-05-05 04:22 | 37.80758 | -122.34201 | 7411 ft | 183 kts | 198° |
| 2026-05-05 04:23 | 37.79712 | -122.35003 | 7874 ft | 179 kts | 223° |
| 2026-05-05 04:23 | 37.79041 | -122.36473 | 7466 ft | 217 kts | 253° |
| 2026-05-05 04:23 | 37.78935 | -122.38513 | 7171 ft | 228 kts | 269° |
| 2026-05-05 04:23 | 37.79022 | -122.40347 | 7962 ft | 192 kts | 279° |
| 2026-05-05 04:24 | 37.79417 | -122.41868 | 8551 ft | 178 kts | 301° |
| 2026-05-05 04:24 | 37.80289 | -122.43026 | 8571 ft | 194 kts | 330° |
| 2026-05-05 04:24 | 37.81673 | -122.43582 | 7952 ft | 229 kts | 357° |
| 2026-05-05 04:25 | 37.83948 | -122.42102 | 7672 ft | 227 kts | 64° |
| 2026-05-05 04:25 | 37.84144 | -122.40096 | 7431 ft | 226 kts | 95° |
| 2026-05-05 04:25 | 37.83952 | -122.38311 | 8310 ft | 187 kts | 104° |
| 2026-05-05 04:25 | 37.83437 | -122.36899 | 8889 ft | 178 kts | 126° |
| 2026-05-05 04:26 | 37.82396 | -122.35827 | 8721 ft | 211 kts | 148° |
| 2026-05-05 04:26 | 37.80925 | -122.35178 | 8401 ft | 238 kts | 173° |
| 2026-05-05 04:26 | 37.79261 | -122.35390 | 8461 ft | 239 kts | 189° |
| 2026-05-05 04:26 | 37.77713 | -122.35916 | 8991 ft | 224 kts | 199° |
| 2026-05-05 04:27 | 37.76327 | -122.36748 | 9471 ft | 212 kts | 204° |
| 2026-05-05 04:27 | 37.75082 | -122.37558 | 10216 ft | 194 kts | 209° |
| 2026-05-05 04:27 | 37.73995 | -122.38565 | 10560 ft | 198 kts | 223° |
| 2026-05-05 04:27 | 37.73110 | -122.40006 | 10514 ft | 221 kts | 242° |
| 2026-05-05 04:28 | 37.72364 | -122.41641 | 11152 ft | 196 kts | 239° |
| 2026-05-05 04:28 | 37.71709 | -122.43058 | 11826 ft | 183 kts | 242° |
| 2026-05-05 04:28 | 37.71130 | -122.44526 | 12147 ft | 189 kts | 244° |
| 2026-05-05 04:28 | 37.70598 | -122.45990 | 12727 ft | 182 kts | 247° |
| 2026-05-05 04:29 | 37.70154 | -122.47501 | 12805 ft | 205 kts | 251° |
| 2026-05-05 04:29 | 37.69435 | -122.49178 | 12798 ft | 227 kts | 230° |
| 2026-05-05 04:29 | 37.68251 | -122.50529 | 12930 ft | 237 kts | 212° |
| 2026-05-05 04:29 | 37.66748 | -122.51420 | 13332 ft | 233 kts | 194° |
| 2026-05-05 04:30 | 37.65142 | -122.51826 | 13502 ft | 240 kts | 185° |
| 2026-05-05 04:30 | 37.63448 | -122.52078 | 13616 ft | 249 kts | 183° |
| 2026-05-05 04:30 | 37.61723 | -122.52253 | 13948 ft | 246 kts | 180° |
| 2026-05-05 04:30 | 37.60021 | -122.52370 | 14243 ft | 245 kts | 182° |
| 2026-05-05 04:31 | 37.58326 | -122.52553 | 14568 ft | 243 kts | 181° |
| 2026-05-05 04:31 | 37.56641 | -122.52681 | 14857 ft | 243 kts | 180° |
| 2026-05-05 04:31 | 37.54941 | -122.52808 | 15055 ft | 248 kts | 180° |
| 2026-05-05 04:31 | 37.53192 | -122.52931 | 15179 ft | 253 kts | 180° |